createdAt,value
2018-01-06T00:00:04.918Z,1000.76
2018-01-06T00:05:03.535Z,1000.83
2018-01-06T00:10:03.178Z,1000.72
2018-01-06T00:15:03.694Z,1000.69
2018-01-06T00:20:03.423Z,1000.73
2018-01-06T00:25:02.999Z,1000.72
2018-01-06T00:30:03.519Z,1000.74
2018-01-06T00:35:02.966Z,1000.76
2018-01-06T00:40:03.660Z,1000.83
2018-01-06T00:45:03.271Z,1000.82
2018-01-06T00:50:02.685Z,1000.82
2018-01-06T00:55:03.327Z,1000.87
2018-01-06T01:00:02.801Z,1000.97
2018-01-06T01:05:03.607Z,1000.99
2018-01-06T01:10:03.213Z,1001.03
2018-01-06T01:15:02.685Z,1001.1
2018-01-06T01:20:03.381Z,1001.1
2018-01-06T01:25:02.932Z,1001.18
2018-01-06T01:30:03.394Z,1001.36
2018-01-06T01:35:02.848Z,1001.4
2018-01-06T01:45:03.170Z,1001.48
2018-01-06T01:50:03.633Z,1001.52
2018-01-06T01:55:03.091Z,1001.57
2018-01-06T02:00:03.564Z,1001.64
2018-01-06T02:05:03.222Z,1001.76
2018-01-06T02:15:03.544Z,1001.81
2018-01-06T02:20:03.080Z,1001.8
2018-01-06T02:25:02.853Z,1001.93
2018-01-06T02:30:03.370Z,1001.85
2018-01-06T02:35:02.995Z,1002
2018-01-06T02:40:03.631Z,1002.07
2018-01-06T02:45:03.137Z,1002.16
2018-01-06T02:50:03.966Z,1002.18
2018-01-06T02:55:03.626Z,1002.2
2018-01-06T03:00:03.147Z,1002.24
2018-01-06T03:05:03.597Z,1002.26
2018-01-06T03:10:03.286Z,1002.36
2018-01-06T03:15:02.759Z,1002.31
2018-01-06T03:20:03.377Z,1002.35
2018-01-06T03:25:02.847Z,1002.34
2018-01-06T03:30:03.478Z,1002.35
2018-01-06T03:35:02.911Z,1002.28
2018-01-06T03:40:03.530Z,1002.22
2018-01-06T03:45:03.190Z,1002.3
2018-01-06T03:50:02.788Z,1002.32
2018-01-06T03:55:03.244Z,1002.44
2018-01-06T04:00:03.832Z,1002.39
2018-01-06T04:05:03.492Z,1002.43
2018-01-06T04:10:03.307Z,1002.49
2018-01-06T04:15:02.849Z,1002.44
2018-01-06T04:20:03.295Z,1002.41
2018-01-06T04:25:02.928Z,1002.5
2018-01-06T04:30:03.417Z,1002.51
2018-01-06T04:35:03.044Z,1002.68
2018-01-06T04:40:02.705Z,1002.78
2018-01-06T04:45:03.171Z,1002.76
2018-01-06T04:50:02.784Z,1002.88
2018-01-06T04:55:03.295Z,1003.08
2018-01-06T05:00:02.837Z,1003.09
2018-01-06T05:05:03.299Z,1003.18
2018-01-06T05:10:03.430Z,1003.26
2018-01-06T05:15:02.969Z,1003.37
2018-01-06T05:20:03.614Z,1003.36
2018-01-06T05:25:03.059Z,1003.3
2018-01-06T05:30:03.583Z,1003.49
2018-01-06T05:35:03.257Z,1003.58
2018-01-06T05:40:02.911Z,1003.63
2018-01-06T05:45:03.842Z,1003.73
2018-01-06T05:50:03.287Z,1003.74
2018-01-06T05:55:03.025Z,1003.74
2018-01-06T06:00:03.687Z,1003.69
2018-01-06T06:05:03.363Z,1003.81
2018-01-06T06:15:02.708Z,1003.79
2018-01-06T06:20:03.273Z,1003.88
2018-01-06T06:25:02.962Z,1003.97
2018-01-06T06:30:03.649Z,1003.95
2018-01-06T06:35:03.098Z,1004.02
2018-01-06T06:40:02.812Z,1004.07
2018-01-06T06:45:03.604Z,1004
2018-01-06T06:50:03.087Z,1003.94
2018-01-06T06:55:03.633Z,1003.94
2018-01-06T07:00:03.057Z,1003.95
2018-01-06T07:05:03.541Z,1003.95
2018-01-06T07:10:02.993Z,1004.06
2018-01-06T07:15:03.509Z,1004.06
2018-01-06T07:20:03.018Z,1004.22
2018-01-06T07:25:03.523Z,1004.26
2018-01-06T07:30:03.036Z,1004.29
2018-01-06T07:35:03.543Z,1004.39
2018-01-06T07:40:03.090Z,1004.56
2018-01-06T07:45:02.728Z,1004.66
2018-01-06T07:50:03.559Z,1004.71
2018-01-06T07:55:03.031Z,1004.78
2018-01-06T08:00:03.539Z,1004.86
2018-01-06T08:05:03.126Z,1004.94
2018-01-06T08:10:02.792Z,1004.99
2018-01-06T08:15:03.306Z,1005.06
2018-01-06T08:20:03.087Z,1005.13
2018-01-06T08:25:02.708Z,1005.29
2018-01-06T08:30:03.316Z,1005.34
2018-01-06T08:35:02.987Z,1005.43
2018-01-06T08:40:03.781Z,1005.53
2018-01-06T08:45:03.433Z,1005.66
2018-01-06T08:50:02.868Z,1005.63
2018-01-06T08:55:03.393Z,1005.75
2018-01-06T09:00:03.083Z,1005.68
2018-01-06T09:05:02.724Z,1005.82
2018-01-06T09:10:03.379Z,1005.75
2018-01-06T09:15:02.996Z,1005.86
2018-01-06T09:20:03.684Z,1005.89
2018-01-06T09:25:03.618Z,1006.05
2018-01-06T09:30:03.550Z,1006.27
2018-01-06T09:35:03.603Z,1006.38
2018-01-06T09:40:03.474Z,1006.48
2018-01-06T09:45:03.441Z,1006.42
2018-01-06T09:50:02.965Z,1006.33
2018-01-06T09:55:03.642Z,1006.26
2018-01-06T10:00:03.576Z,1006.38
2018-01-06T10:05:03.315Z,1006.42
2018-01-06T10:10:02.975Z,1006.56
2018-01-06T10:15:03.447Z,1006.62
2018-01-06T10:20:03.238Z,1006.62
2018-01-06T10:25:02.859Z,1006.74
2018-01-06T10:30:03.493Z,1006.72
2018-01-06T10:35:03.020Z,1006.8
2018-01-06T10:40:03.564Z,1006.78
2018-01-06T10:45:03.022Z,1006.86
2018-01-06T10:50:03.455Z,1006.79
2018-01-06T10:55:02.917Z,1006.85
2018-01-06T11:00:03.423Z,1007.13
2018-01-06T11:05:02.949Z,1007.14
2018-01-06T11:10:03.537Z,1007.19
2018-01-06T11:15:03.083Z,1007.19
2018-01-06T11:20:02.751Z,1007.23
2018-01-06T11:25:03.305Z,1007.22
2018-01-06T11:30:02.877Z,1007.26
2018-01-06T11:35:03.354Z,1007.23
2018-01-06T11:40:03.003Z,1007.39
2018-01-06T11:45:03.818Z,1007.42
2018-01-06T11:50:03.860Z,1007.44
2018-01-06T12:00:03.242Z,1007.48
2018-01-06T12:05:02.988Z,1007.5
2018-01-06T12:10:02.770Z,1007.52
2018-01-06T12:15:03.401Z,1007.52
2018-01-06T12:20:02.954Z,1007.47
2018-01-06T12:25:03.629Z,1007.54
2018-01-06T12:30:03.173Z,1007.62
2018-01-06T12:40:03.394Z,1007.68
2018-01-06T12:45:02.814Z,1007.74
2018-01-06T12:50:03.544Z,1007.85
2018-01-06T12:55:03.032Z,1007.88
2018-01-06T13:00:02.838Z,1007.91
2018-01-06T13:05:03.500Z,1007.95
2018-01-06T13:10:03.138Z,1008.03
2018-01-06T13:15:02.757Z,1008.06
2018-01-06T13:20:03.412Z,1008.17
2018-01-06T13:25:02.975Z,1008.2
2018-01-06T13:30:03.547Z,1008.26
2018-01-06T13:35:03.214Z,1008.26
2018-01-06T13:40:02.869Z,1008.31
2018-01-06T13:45:03.441Z,1008.37
2018-01-06T13:50:02.860Z,1008.37
2018-01-06T13:55:03.460Z,1008.38
2018-01-06T14:00:03.120Z,1008.45
2018-01-06T14:05:03.628Z,1008.52
2018-01-06T14:10:03.104Z,1008.67
2018-01-06T14:15:03.827Z,1008.89
2018-01-06T14:20:03.440Z,1008.91
2018-01-06T14:25:03.045Z,1009.03
2018-01-06T14:30:02.938Z,1009.09
2018-01-06T14:35:03.486Z,1009.17
2018-01-06T14:40:03.083Z,1009.18
2018-01-06T14:45:03.192Z,1009.15
2018-01-06T14:50:02.813Z,1009.24
2018-01-06T14:55:03.477Z,1009.32
2018-01-06T15:00:02.922Z,1009.43
2018-01-06T15:05:03.426Z,1009.51
2018-01-06T15:10:03.100Z,1009.58
2018-01-06T15:20:02.789Z,1009.7
2018-01-06T15:25:03.404Z,1009.72
2018-01-06T15:30:22.984Z,1009.66
2018-01-06T15:35:03.458Z,1009.77
2018-01-06T15:40:03.016Z,1009.93
2018-01-06T15:45:02.760Z,1009.84
2018-01-06T15:50:03.289Z,1009.84
2018-01-06T15:55:02.962Z,1009.9
2018-01-06T16:00:03.601Z,1009.92
2018-01-06T16:05:03.284Z,1010
2018-01-06T16:10:02.834Z,1010.16
2018-01-06T16:15:03.345Z,1010.31
2018-01-06T16:20:03.038Z,1010.34
2018-01-06T16:25:03.586Z,1010.38
2018-01-06T16:30:03.051Z,1010.46
2018-01-06T16:35:03.059Z,1010.48
2018-01-06T16:40:03.612Z,1010.56
2018-01-06T16:45:03.418Z,1010.77
2018-01-06T16:50:03.323Z,1010.79
2018-01-06T16:55:02.949Z,1010.89
2018-01-06T17:00:03.536Z,1010.97
2018-01-06T17:05:03.297Z,1011.04
2018-01-06T17:10:02.983Z,1011.23
2018-01-06T17:15:02.726Z,1011.22
2018-01-06T17:20:03.239Z,1011.25
2018-01-06T17:25:02.908Z,1011.28
2018-01-06T17:30:03.405Z,1011.29
2018-01-06T17:35:02.975Z,1011.36
2018-01-06T17:40:03.730Z,1011.43
2018-01-06T17:45:03.344Z,1011.65
2018-01-06T17:50:03.006Z,1011.95
2018-01-06T17:55:03.657Z,1011.89
2018-01-06T18:00:03.128Z,1011.95
2018-01-06T18:05:02.952Z,1011.97
2018-01-06T18:10:03.625Z,1012.12
2018-01-06T18:15:03.161Z,1012.25
2018-01-06T18:20:02.865Z,1012.36
2018-01-06T18:25:03.416Z,1012.46
2018-01-06T18:30:02.861Z,1012.42
2018-01-06T18:35:03.482Z,1012.49
2018-01-06T18:40:03.196Z,1012.61
2018-01-06T18:45:03.959Z,1012.85
2018-01-06T18:50:03.778Z,1012.89
2018-01-06T18:55:03.791Z,1012.89
2018-01-06T19:00:03.484Z,1013.08
2018-01-06T19:05:03.452Z,1013.1
2018-01-06T19:10:03.391Z,1013.14
2018-01-06T19:15:03.366Z,1013.31
2018-01-06T19:20:02.891Z,1013.49
2018-01-06T19:25:03.678Z,1013.49
2018-01-06T19:30:03.291Z,1013.66
2018-01-06T19:35:02.903Z,1013.78
2018-01-06T19:40:03.449Z,1013.92
2018-01-06T19:45:02.925Z,1013.91
2018-01-06T19:50:03.454Z,1014.05
2018-01-06T19:55:02.961Z,1014.17
2018-01-06T20:00:03.504Z,1014.07
2018-01-06T20:05:02.941Z,1014.22
2018-01-06T20:10:03.615Z,1014.34
2018-01-06T20:15:03.188Z,1014.39
2018-01-06T20:20:02.856Z,1014.56
2018-01-06T20:25:03.442Z,1014.71
2018-01-06T20:30:02.894Z,1014.73
2018-01-06T20:35:03.457Z,1014.85
2018-01-06T20:40:03.137Z,1015.05
2018-01-06T20:45:03.604Z,1015.17
2018-01-06T20:50:03.187Z,1015.32
2018-01-06T20:55:03.650Z,1015.39
2018-01-06T21:00:03.309Z,1015.45
2018-01-06T21:05:02.894Z,1015.58
2018-01-06T21:10:03.453Z,1015.61
2018-01-06T21:15:03.176Z,1015.6
2018-01-06T21:20:02.828Z,1015.6
2018-01-06T21:25:03.351Z,1015.68
2018-01-06T21:30:02.945Z,1015.71
2018-01-06T21:35:03.624Z,1015.74
2018-01-06T21:40:03.694Z,1015.86
2018-01-06T21:45:03.454Z,1015.81
2018-01-06T21:50:03.020Z,1015.94
2018-01-06T21:55:03.538Z,1016.02
2018-01-06T22:00:03.184Z,1016.08
2018-01-06T22:05:02.909Z,1016.12
2018-01-06T22:10:03.406Z,1016.23
2018-01-06T22:15:02.993Z,1016.44
2018-01-06T22:20:03.467Z,1016.46
2018-01-06T22:25:02.969Z,1016.58
2018-01-06T22:30:03.735Z,1016.71
2018-01-06T22:35:03.366Z,1016.72
2018-01-06T22:40:02.852Z,1016.75
2018-01-06T22:45:03.473Z,1016.82
2018-01-06T22:50:03.002Z,1016.82
2018-01-06T22:55:03.479Z,1016.93
2018-01-06T23:00:03.092Z,1016.97
2018-01-06T23:05:02.704Z,1016.91
2018-01-06T23:10:03.232Z,1016.96
2018-01-06T23:15:02.944Z,1017.05
2018-01-06T23:20:03.383Z,1017.13
2018-01-06T23:25:02.915Z,1017.22
2018-01-06T23:30:03.600Z,1017.33
2018-01-06T23:35:03.093Z,1017.39
2018-01-06T23:40:02.832Z,1017.44
2018-01-06T23:45:03.471Z,1017.35
2018-01-06T23:50:03.058Z,1017.43
2018-01-06T23:55:03.697Z,1017.61
